Time;durP1;ratioP1;P1;durP2;ratioP2;P2;SDS_P1;SDS_P2;PMS_P1;PMS_P2;Temp;Humidity;BMP_temperature;BMP_pressure;BME280_temperature;BME280_humidity;BME280_pressure;Samples;Min_cycle;Max_cycle;Signal;HPM_P1;HPM_P2
2022/03/23 01:49:38;;;;;;;50.42;30.98;;;6.50;99.90;;;;;;6199435;23;20081;-73
2022/03/23 01:52:07;;;;;;;51.42;30.92;;;6.50;99.90;;;;;;6187610;23;20017;-73
2022/03/23 01:54:34;;;;;;;51.65;31.05;;;6.50;99.90;;;;;;6213286;23;20053;-72
2022/03/23 01:57:03;;;;;;;54.80;32.50;;;6.40;99.90;;;;;;6212709;23;20008;-72
2022/03/23 01:59:29;;;;;;;49.33;31.10;;;6.40;99.90;;;;;;6213142;23;20024;-72
2022/03/23 02:01:56;;;;;;;57.15;33.47;;;6.40;99.90;;;;;;6198112;23;20013;-71
2022/03/23 02:04:22;;;;;;;52.67;31.13;;;6.40;99.90;;;;;;6158398;23;20015;-71
2022/03/23 02:06:49;;;;;;;60.17;32.22;;;6.40;99.90;;;;;;6182212;23;20013;-72
2022/03/23 02:09:18;;;;;;;61.15;32.10;;;6.30;99.90;;;;;;6182953;23;20009;-71
2022/03/23 02:11:46;;;;;;;55.13;30.98;;;6.30;99.90;;;;;;6158147;23;20012;-72
2022/03/23 02:14:13;;;;;;;51.80;30.38;;;6.30;99.90;;;;;;6183100;23;20001;-71
2022/03/23 02:16:45;;;;;;;56.80;31.25;;;6.30;99.90;;;;;;6157712;23;19998;-72
2022/03/23 02:19:12;;;;;;;57.90;32.03;;;6.30;99.90;;;;;;6182612;23;20009;-71
2022/03/23 02:21:46;;;;;;;55.08;31.90;;;6.20;99.90;;;;;;6158451;23;20049;-72
2022/03/23 02:24:16;;;;;;;52.75;30.63;;;6.20;99.90;;;;;;6158915;23;20012;-71
2022/03/23 02:26:43;;;;;;;;;;;6.20;99.90;;;;;;6185404;23;20001;-71
2022/03/23 02:29:10;;;;;;;55.00;31.52;;;6.10;99.90;;;;;;6184079;23;19952;-72
2022/03/23 02:31:39;;;;;;;51.35;30.55;;;6.10;99.90;;;;;;6183852;23;20002;-71
2022/03/23 02:34:06;;;;;;;55.60;33.25;;;6.10;99.90;;;;;;6183623;23;20013;-72
2022/03/23 02:36:32;;;;;;;48.90;30.55;;;6.10;99.90;;;;;;6183392;23;20006;-71
2022/03/23 02:38:58;;;;;;;58.65;32.97;;;6.10;99.90;;;;;;6183592;23;20002;-72
2022/03/23 02:41:25;;;;;;;57.03;34.00;;;6.10;99.90;;;;;;6158409;23;20009;-72
2022/03/23 02:43:51;;;;;;;50.80;31.15;;;6.00;99.90;;;;;;6158277;23;20061;-73
2022/03/23 02:46:19;;;;;;;53.00;31.92;;;6.00;99.90;;;;;;6182489;23;20017;-72
2022/03/23 02:48:47;;;;;;;54.22;31.40;;;6.00;99.90;;;;;;6157726;23;20025;-71
2022/03/23 02:51:14;;;;;;;51.55;31.67;;;6.00;99.90;;;;;;6158554;23;20044;-71
2022/03/23 03:02:52;;;;;;;;;;;5.90;99.90;;;;;;6109822;23;20020;-71
2022/03/23 03:05:18;;;;;;;56.33;32.78;;;5.80;99.90;;;;;;6182630;23;19897;-72
2022/03/23 03:10:30;;;;;;;54.58;32.38;;;5.80;99.90;;;;;;6183548;23;20006;-72
2022/03/23 03:12:56;;;;;;;54.15;30.98;;;5.80;99.90;;;;;;6181636;23;20017;-71
2022/03/23 03:15:25;;;;;;;50.90;31.27;;;5.80;99.90;;;;;;6157855;23;20016;-71
2022/03/23 03:17:51;;;;;;;54.45;32.60;;;5.70;99.90;;;;;;6157763;23;20006;-72
2022/03/23 03:20:18;;;;;;;51.72;32.70;;;5.70;99.90;;;;;;6158098;23;20029;-71
2022/03/23 03:22:47;;;;;;;57.35;32.95;;;5.70;99.90;;;;;;6157747;23;20004;-71
2022/03/23 03:25:17;;;;;;;62.67;33.87;;;5.70;99.90;;;;;;6157744;23;20010;-72
2022/03/23 03:27:46;;;;;;;;;;;5.70;99.90;;;;;;6182221;23;20012;-72
2022/03/23 03:30:17;;;;;;;52.17;31.27;;;5.60;99.90;;;;;;6182529;23;19933;-71
2022/03/23 03:32:45;;;;;;;59.22;33.58;;;5.60;99.90;;;;;;6158053;23;20013;-71
2022/03/23 03:35:17;;;;;;;51.88;31.98;;;5.60;99.90;;;;;;6157250;23;19998;-71
2022/03/23 03:37:43;;;;;;;59.47;33.97;;;5.60;99.90;;;;;;6157859;23;20009;-72
2022/03/23 03:40:10;;;;;;;63.00;34.78;;;5.60;99.90;;;;;;6181528;23;20005;-71
2022/03/23 03:42:37;;;;;;;58.47;33.88;;;5.50;99.90;;;;;;6182331;23;20041;-72
2022/03/23 03:45:05;;;;;;;55.35;33.75;;;5.50;99.90;;;;;;6182428;23;20021;-71
2022/03/23 03:47:31;;;;;;;61.03;34.88;;;5.50;99.90;;;;;;6182130;23;20010;-71
2022/03/23 03:49:57;;;;;;;64.35;36.03;;;5.50;99.90;;;;;;6157547;23;20021;-72
2022/03/23 03:52:23;;;;;;;54.38;33.60;;;5.50;99.90;;;;;;6158025;23;20001;-72
2022/03/23 03:54:50;;;;;;;57.45;34.45;;;5.50;99.90;;;;;;6182373;23;20009;-73
2022/03/23 03:57:16;;;;;;;56.53;33.13;;;5.50;99.90;;;;;;6182990;23;20017;-72
2022/03/23 03:59:43;;;;;;;58.80;33.63;;;5.50;99.90;;;;;;6182357;23;20040;-71
2022/03/23 04:02:09;;;;;;;54.58;32.80;;;5.40;99.90;;;;;;6182486;23;20013;-72
2022/03/23 04:04:40;;;;;;;57.33;31.65;;;5.40;99.90;;;;;;6157772;23;20089;-71
2022/03/23 04:07:06;;;;;;;59.55;33.33;;;5.30;99.90;;;;;;6157313;23;20010;-71
2022/03/23 04:09:32;;;;;;;55.60;32.42;;;5.30;99.90;;;;;;6156722;23;20078;-71
2022/03/23 04:11:58;;;;;;;52.90;32.05;;;5.20;99.90;;;;;;6182194;23;20014;-71
2022/03/23 04:14:26;;;;;;;52.00;32.88;;;5.20;99.90;;;;;;6182715;23;20021;-72
2022/03/23 04:16:56;;;;;;;55.22;32.72;;;5.20;99.90;;;;;;6181897;23;20433;-72
2022/03/23 04:19:27;;;;;;;59.97;33.97;;;5.20;99.90;;;;;;6182092;23;20021;-71
2022/03/23 04:21:55;;;;;;;61.38;34.55;;;5.10;99.90;;;;;;6157327;23;20009;-71
2022/03/23 04:24:21;;;;;;;56.20;33.70;;;5.20;99.90;;;;;;6183105;23;20017;-71
2022/03/23 04:26:49;;;;;;;61.60;35.20;;;5.20;99.90;;;;;;6157421;23;20017;-71
2022/03/23 04:29:17;;;;;;;59.83;33.92;;;5.10;99.90;;;;;;6098176;23;20083;-71
2022/03/23 04:31:43;;;;;;;58.83;36.08;;;5.10;99.90;;;;;;6098361;23;20003;-71
2022/03/23 04:34:12;;;;;;;60.58;36.33;;;5.10;99.90;;;;;;6098173;23;20002;-71
2022/03/23 04:36:38;;;;;;;65.72;37.28;;;5.10;99.90;;;;;;6098223;23;20023;-71
2022/03/23 04:39:06;;;;;;;64.70;37.08;;;5.10;99.90;;;;;;6075042;23;20022;-72
2022/03/23 04:41:32;;;;;;;63.40;36.85;;;5.10;99.90;;;;;;6076508;23;20025;-72
2022/03/23 04:43:58;;;;;;;63.20;35.88;;;5.10;99.90;;;;;;6100462;23;20010;-72
2022/03/23 04:46:24;;;;;;;62.53;35.80;;;5.10;99.90;;;;;;6100258;23;20030;-73
2022/03/23 04:48:52;;;;;;;60.72;36.08;;;5.10;99.90;;;;;;6075896;23;20018;-72
2022/03/23 04:51:19;;;;;;;62.28;37.13;;;5.10;99.90;;;;;;6100527;23;20006;-73
2022/03/23 04:53:45;;;;;;;60.70;36.65;;;5.10;99.90;;;;;;6076568;23;20015;-71
2022/03/23 04:56:13;;;;;;;62.47;36.13;;;5.00;99.90;;;;;;6100543;23;20011;-73
2022/03/23 04:58:39;;;;;;;60.80;35.70;;;5.00;99.90;;;;;;6100341;23;20018;-71
2022/03/23 05:01:05;;;;;;;65.00;35.80;;;5.00;99.90;;;;;;6099917;23;20010;-71
2022/03/23 05:03:32;;;;;;;60.10;35.10;;;5.00;99.90;;;;;;6100325;23;19998;-73
2022/03/23 05:05:58;;;;;;;60.83;36.83;;;5.00;99.90;;;;;;6094345;23;20021;-71
2022/03/23 05:08:23;;;;;;;62.28;35.97;;;5.00;99.90;;;;;;6183727;23;20009;-71
2022/03/23 05:10:52;;;;;;;62.03;36.00;;;4.90;99.90;;;;;;6183817;23;20013;-70
2022/03/23 05:13:18;;;;;;;68.43;37.10;;;4.90;99.90;;;;;;6158824;23;20014;-71
2022/03/23 05:15:45;;;;;;;62.65;35.53;;;4.90;99.90;;;;;;6183557;23;20099;-73
2022/03/23 05:18:14;;;;;;;64.00;36.27;;;4.90;99.90;;;;;;6183870;23;20019;-71
2022/03/23 05:20:45;;;;;;;62.53;35.53;;;4.80;99.90;;;;;;6158706;23;20032;-71
2022/03/23 05:23:13;;;;;;;61.90;37.83;;;4.80;99.90;;;;;;6183996;23;20028;-71
2022/03/23 05:25:42;;;;;;;59.50;35.83;;;4.80;99.90;;;;;;6183483;23;20002;-72
2022/03/23 05:28:09;;;;;;;60.10;36.83;;;4.80;99.90;;;;;;6183521;23;20020;-71
2022/03/23 05:30:36;;;;;;;67.13;37.58;;;4.80;99.90;;;;;;6183358;23;20045;-71
2022/03/23 05:33:04;;;;;;;65.47;38.00;;;4.80;99.90;;;;;;6184250;23;20001;-71
2022/03/23 05:35:31;;;;;;;69.78;39.67;;;4.80;99.90;;;;;;6158695;23;20016;-72
2022/03/23 05:37:58;;;;;;;68.25;38.80;;;4.80;99.90;;;;;;6184507;23;20025;-71
2022/03/23 05:40:24;;;;;;;72.20;39.90;;;4.70;99.90;;;;;;6159029;23;20013;-72
2022/03/23 05:42:51;;;;;;;71.78;39.95;;;4.70;99.90;;;;;;6183160;23;20021;-70
2022/03/23 05:45:18;;;;;;;66.35;39.20;;;4.70;99.90;;;;;;6159107;23;20010;-71
2022/03/23 05:47:45;;;;;;;66.20;38.33;;;4.80;99.90;;;;;;6183067;23;20065;-71
2022/03/23 05:50:11;;;;;;;62.80;38.38;;;4.80;99.90;;;;;;6158266;23;20005;-72
2022/03/23 05:52:40;;;;;;;65.35;39.47;;;4.80;99.90;;;;;;6158615;23;20009;-71
2022/03/23 05:55:07;;;;;;;68.45;40.90;;;4.80;99.90;;;;;;6183085;23;20024;-70
2022/03/23 05:57:34;;;;;;;71.05;40.22;;;4.80;99.90;;;;;;6158518;23;20013;-70
2022/03/23 06:00:01;;;;;;;60.67;38.33;;;4.90;99.90;;;;;;6183943;23;20061;-71
2022/03/23 06:02:27;;;;;;;65.85;39.55;;;4.90;99.90;;;;;;6158217;23;20009;-70
2022/03/23 06:04:53;;;;;;;64.72;39.10;;;4.90;99.90;;;;;;6158658;23;20009;-72
2022/03/23 06:07:19;;;;;;;62.53;38.60;;;4.90;99.90;;;;;;6158163;23;20029;-71
2022/03/23 06:09:46;;;;;;;70.28;40.80;;;5.00;99.90;;;;;;6183785;23;20088;-71
2022/03/23 06:12:12;;;;;;;63.13;38.15;;;5.00;99.90;;;;;;6158287;23;20013;-71
2022/03/23 06:14:44;;;;;;;64.88;39.00;;;5.00;99.90;;;;;;6183422;23;20076;-71
2022/03/23 06:17:11;;;;;;;63.45;37.38;;;5.00;99.90;;;;;;6158488;23;20008;-71
2022/03/23 06:19:37;;;;;;;64.68;37.70;;;5.00;99.90;;;;;;6158361;23;20002;-71
2022/03/23 06:22:05;;;;;;;67.43;38.97;;;5.10;99.90;;;;;;6183128;23;20001;-73
2022/03/23 06:24:31;;;;;;;67.20;38.88;;;5.10;99.90;;;;;;6183048;23;20069;-74
2022/03/23 06:27:03;;;;;;;66.72;39.17;;;5.10;99.90;;;;;;6182801;23;20048;-73
2022/03/23 06:29:29;;;;;;;67.80;38.85;;;5.20;99.90;;;;;;6158130;23;20029;-70
2022/03/23 06:31:57;;;;;;;69.15;40.72;;;5.20;99.90;;;;;;6183037;23;20017;-70
2022/03/23 06:34:25;;;;;;;70.20;39.67;;;5.20;99.90;;;;;;6180955;23;20018;-72
2022/03/23 06:36:54;;;;;;;67.63;39.17;;;5.30;99.90;;;;;;6158145;23;20013;-71
2022/03/23 06:39:22;;;;;;;69.72;40.03;;;5.40;99.90;;;;;;6182399;23;19997;-70
2022/03/23 06:41:48;;;;;;;69.88;42.22;;;5.40;99.90;;;;;;6158092;23;20070;-71
2022/03/23 06:44:15;;;;;;;74.45;44.10;;;5.50;99.90;;;;;;6157564;23;20010;-71
2022/03/23 06:46:42;;;;;;;69.40;39.47;;;5.50;99.90;;;;;;6158179;23;20017;-71
2022/03/23 06:49:08;;;;;;;74.35;41.22;;;5.60;99.90;;;;;;6157363;23;20018;-71
2022/03/23 06:51:33;;;;;;;70.35;40.45;;;5.60;99.90;;;;;;6157763;23;20057;-71
2022/03/23 06:53:59;;;;;;;66.82;40.78;;;5.70;99.90;;;;;;6157640;23;20010;-70
2022/03/23 06:56:26;;;;;;;72.70;41.72;;;5.80;99.90;;;;;;6182750;23;20017;-72
2022/03/23 06:58:52;;;;;;;72.57;41.90;;;5.80;99.90;;;;;;6157868;23;20001;-71
2022/03/23 07:01:18;;;;;;;71.93;41.47;;;6.00;99.90;;;;;;6157573;23;20009;-71
2022/03/23 07:03:48;;;;;;;70.50;41.00;;;6.10;99.90;;;;;;6157353;23;20037;-72
2022/03/23 07:06:16;;;;;;;80.80;42.38;;;6.20;99.90;;;;;;6158608;23;20058;-72
2022/03/23 07:11:33;;;;;;;65.20;39.97;;;6.50;99.90;;;;;;6183385;23;20010;-71
2022/03/23 07:14:01;;;;;;;63.08;37.90;;;6.60;99.90;;;;;;6157891;23;20060;-73
2022/03/23 07:16:32;;;;;;;63.75;37.28;;;6.80;99.90;;;;;;6182211;23;20010;-72
2022/03/23 07:19:13;;;;;;;62.83;37.78;;;6.90;99.90;;;;;;6182115;23;20014;-71
2022/03/23 07:21:39;;;;;;;61.22;37.55;;;7.10;99.90;;;;;;6157833;23;20013;-72
2022/03/23 07:24:19;;;;;;;63.80;37.15;;;7.30;99.90;;;;;;6182616;23;20002;-72
2022/03/23 07:26:48;;;;;;;57.38;35.55;;;7.40;99.90;;;;;;6182117;23;20036;-72
2022/03/23 07:29:17;;;;;;;61.42;35.15;;;7.60;99.90;;;;;;6182355;23;20005;-71
2022/03/23 07:32:03;;;;;;;61.40;35.05;;;7.70;99.90;;;;;;6157812;23;20024;-72
2022/03/23 07:34:35;;;;;;;56.60;34.20;;;7.90;99.90;;;;;;6157586;23;20033;-72
2022/03/23 07:37:01;;;;;;;51.85;32.20;;;8.10;99.90;;;;;;6182231;23;20016;-72
2022/03/23 07:39:28;;;;;;;48.50;30.63;;;8.30;99.90;;;;;;6177955;23;20009;-72
2022/03/23 07:41:55;;;;;;;47.80;30.00;;;8.50;99.90;;;;;;6182578;23;20016;-72
2022/03/23 07:44:29;;;;;;;51.60;29.58;;;8.70;99.90;;;;;;6182734;23;20013;-72
2022/03/23 07:46:55;;;;;;;46.67;29.30;;;8.90;99.90;;;;;;6182385;23;20044;-72
2022/03/23 07:49:23;;;;;;;45.38;27.45;;;9.10;99.90;;;;;;6182311;23;20001;-73
2022/03/23 07:51:49;;;;;;;50.35;28.90;;;9.40;99.90;;;;;;6158217;23;20044;-73
2022/03/23 07:54:16;;;;;;;43.35;28.77;;;9.60;99.90;;;;;;6182833;23;20005;-73
2022/03/23 07:56:43;;;;;;;41.40;26.23;;;9.80;99.90;;;;;;6158662;23;20005;-73
2022/03/23 07:59:09;;;;;;;40.78;26.23;;;10.00;99.90;;;;;;6158601;23;20025;-72
2022/03/23 08:01:36;;;;;;;41.20;26.35;;;10.20;99.90;;;;;;6158626;23;20032;-73
2022/03/23 08:04:05;;;;;;;42.35;27.38;;;10.50;99.90;;;;;;6182675;23;20025;-73
2022/03/23 08:06:35;;;;;;;42.25;26.00;;;10.70;99.90;;;;;;6158549;23;20028;-73
2022/03/23 08:09:03;;;;;;;43.08;26.02;;;10.90;99.90;;;;;;6183217;23;20048;-73
2022/03/23 23:13:05;;;;;;;43.78;26.75;;;7.00;99.90;;;;;;6182576;23;20005;-69
2022/03/23 23:15:32;;;;;;;47.08;27.83;;;7.00;99.90;;;;;;6133379;23;20025;-70
2022/03/23 23:17:58;;;;;;;47.20;29.05;;;7.00;99.90;;;;;;6182564;23;20004;-70
2022/03/23 23:20:24;;;;;;;46.40;28.63;;;6.90;99.90;;;;;;6182179;23;20013;-70
2022/03/23 23:22:50;;;;;;;49.63;29.85;;;6.90;99.90;;;;;;6182196;23;20045;-69
2022/03/23 23:25:16;;;;;;;49.83;29.55;;;6.80;99.90;;;;;;6182455;23;20001;-71
2022/03/23 23:27:47;;;;;;;50.88;29.48;;;6.80;99.90;;;;;;6182968;23;20009;-70
2022/03/23 23:30:20;;;;;;;52.50;29.85;;;6.80;99.90;;;;;;6207636;23;20010;-70
2022/03/23 23:32:49;;;;;;;47.55;28.88;;;6.70;99.90;;;;;;6158357;23;20032;-70
2022/03/23 23:35:16;;;;;;;51.13;30.50;;;6.70;99.90;;;;;;6158141;23;20013;-70
2022/03/23 23:37:43;;;;;;;52.80;31.52;;;6.70;99.90;;;;;;6109761;23;20022;-69
2022/03/23 23:40:11;;;;;;;50.35;30.88;;;6.60;99.90;;;;;;6133204;23;20017;-69
2022/03/23 23:42:38;;;;;;;52.47;30.90;;;6.60;99.90;;;;;;6157758;23;20017;-70
2022/03/23 23:45:07;;;;;;;53.75;30.70;;;6.60;99.90;;;;;;6182699;23;20005;-68
2022/03/23 23:47:33;;;;;;;49.30;29.27;;;6.50;99.90;;;;;;6183051;23;20041;-70
2022/03/23 23:49:59;;;;;;;53.63;30.90;;;6.50;99.90;;;;;;6182806;23;20070;-70
2022/03/23 23:52:26;;;;;;;49.72;31.17;;;6.40;99.90;;;;;;6182610;23;20025;-71
2022/03/23 23:54:52;;;;;;;55.65;31.55;;;6.40;99.90;;;;;;6157863;23;20029;-69
2022/03/23 23:57:19;;;;;;;52.92;31.50;;;6.40;99.90;;;;;;6157802;23;20045;-70
2022/03/23 23:59:46;;;;;;;50.15;31.70;;;6.40;99.90;;;;;;6157679;23;20025;-69
